createdAt,value
2022-11-10T00:01:52.897Z,73.95
2022-11-10T00:04:38.979Z,74.55
2022-11-10T00:07:28.105Z,73.70
2022-11-10T00:10:13.377Z,71.53
2022-11-10T00:13:04.662Z,74.63
2022-11-10T00:16:10.214Z,80.03
2022-11-10T00:18:56.656Z,80.80
2022-11-10T00:21:41.605Z,97.80
2022-11-10T00:24:27.609Z,95.20
2022-11-10T00:27:14.769Z,100.03
2022-11-10T00:30:00.236Z,98.30
2022-11-10T00:32:48.352Z,95.43
2022-11-10T00:35:33.579Z,102.55
2022-11-10T00:38:18.779Z,93.07
2022-11-10T00:41:04.841Z,91.55
2022-11-10T00:43:50.428Z,97.20
2022-11-10T00:46:35.770Z,96.53
2022-11-10T00:49:21.984Z,95.68
2022-11-10T00:52:06.812Z,107.82
2022-11-10T00:54:52.172Z,101.72
2022-11-10T00:57:37.404Z,90.90
2022-11-10T01:00:22.723Z,90.85
2022-11-10T01:03:08.464Z,94.40
2022-11-10T01:05:53.676Z,93.95
2022-11-10T01:08:40.444Z,97.43
2022-11-10T01:11:29.154Z,88.78
2022-11-10T01:14:14.177Z,89.45
2022-11-10T01:16:59.893Z,80.03
2022-11-10T01:19:44.858Z,78.03
2022-11-10T01:22:31.106Z,74.32
2022-11-10T01:25:16.089Z,65.30
2022-11-10T01:28:01.352Z,65.03
2022-11-10T01:30:46.821Z,77.72
2022-11-10T01:33:32.510Z,63.67
2022-11-10T01:36:17.912Z,64.82
2022-11-10T01:39:03.331Z,69.10
2022-11-10T01:41:48.672Z,69.72
2022-11-10T01:44:35.690Z,69.55
2022-11-10T01:47:20.955Z,74.07
2022-11-10T01:50:06.835Z,70.40
2022-11-10T01:52:55.056Z,64.85
2022-11-10T01:55:45.098Z,76.07
2022-11-10T01:58:33.951Z,69.20
2022-11-10T02:01:19.064Z,70.80
2022-11-10T02:04:07.540Z,68.15
2022-11-10T02:06:53.452Z,74.07
2022-11-10T02:09:39.102Z,72.30
2022-11-10T02:12:37.263Z,78.35
2022-11-10T02:15:42.548Z,66.22
2022-11-10T02:18:28.150Z,67.00
2022-11-10T02:21:17.980Z,73.93
2022-11-10T02:24:03.450Z,73.93
2022-11-10T02:26:54.533Z,73.68
2022-11-10T02:29:40.006Z,75.28
2022-11-10T02:32:25.296Z,72.10
2022-11-10T02:35:11.000Z,69.40
2022-11-10T02:37:56.350Z,73.10
2022-11-10T02:40:42.021Z,67.07
2022-11-10T02:43:27.179Z,67.38
2022-11-10T02:46:12.465Z,65.00
2022-11-10T02:48:58.063Z,71.47
2022-11-10T02:51:43.062Z,74.40
2022-11-10T02:54:28.423Z,74.90
2022-11-10T02:57:13.508Z,75.20
2022-11-10T02:59:58.443Z,66.65
2022-11-10T03:02:44.469Z,73.72
2022-11-10T03:05:30.140Z,75.03
2022-11-10T03:08:15.375Z,69.15
2022-11-10T03:11:00.641Z,67.20
2022-11-10T03:14:01.015Z,63.97
2022-11-10T03:16:47.692Z,67.90
2022-11-10T03:19:33.001Z,71.03
2022-11-10T03:22:19.105Z,60.78
2022-11-10T03:25:05.476Z,64.05
2022-11-10T03:27:50.704Z,65.88
2022-11-10T03:30:36.384Z,64.82
2022-11-10T03:33:21.991Z,66.20
2022-11-10T03:36:07.736Z,65.32
2022-11-10T03:38:53.068Z,64.85
2022-11-10T03:41:38.038Z,66.18
2022-11-10T03:44:23.413Z,62.42
2022-11-10T03:47:08.940Z,67.18
2022-11-10T03:49:54.311Z,65.93
2022-11-10T03:52:40.723Z,69.95
2022-11-10T03:55:25.768Z,68.90
2022-11-10T03:58:11.162Z,68.45
2022-11-10T04:00:57.034Z,67.20
2022-11-10T04:03:43.678Z,70.72
2022-11-10T04:06:50.674Z,61.58
2022-11-10T04:12:40.031Z,59.83
2022-11-10T04:15:43.536Z,64.88
2022-11-10T04:18:29.915Z,67.32
2022-11-10T04:21:15.555Z,68.45
2022-11-10T04:24:00.814Z,63.63
2022-11-10T04:26:47.574Z,75.82
2022-11-10T04:29:34.439Z,68.70
2022-11-10T04:32:19.832Z,71.82
2022-11-10T04:35:05.121Z,70.30
2022-11-10T04:37:50.445Z,76.18
2022-11-10T04:40:35.683Z,76.45
2022-11-10T04:43:21.538Z,64.72
2022-11-10T04:46:08.396Z,73.28
2022-11-10T04:48:54.775Z,66.28
2022-11-10T04:51:40.385Z,75.82
2022-11-10T04:54:26.074Z,74.28
2022-11-10T04:57:11.335Z,69.53
2022-11-10T04:59:56.478Z,65.35
2022-11-10T05:02:41.618Z,65.63
2022-11-10T05:05:27.040Z,70.00
2022-11-10T05:08:12.478Z,72.20
2022-11-10T05:10:57.427Z,71.57
2022-11-10T05:13:44.033Z,64.78
2022-11-10T05:16:29.321Z,73.13
2022-11-10T05:19:14.595Z,64.88
2022-11-10T05:21:59.947Z,65.85
2022-11-10T05:24:45.181Z,69.80
2022-11-10T05:27:30.285Z,58.90
2022-11-10T05:30:15.572Z,69.10
2022-11-10T05:33:01.094Z,70.38
2022-11-10T05:35:46.037Z,65.85
2022-11-10T05:38:31.607Z,65.78
2022-11-10T05:41:16.738Z,65.88
2022-11-10T05:44:01.769Z,65.38
2022-11-10T05:46:47.358Z,66.45
2022-11-10T05:49:32.278Z,60.92
2022-11-10T05:52:17.679Z,57.40
2022-11-10T05:55:03.022Z,65.75
2022-11-10T05:57:50.098Z,55.55
2022-11-10T06:00:36.003Z,55.50
2022-11-10T06:03:21.698Z,54.40
2022-11-10T06:06:07.592Z,49.45
2022-11-10T06:08:52.775Z,47.22
2022-11-10T06:11:38.232Z,48.70
2022-11-10T06:14:23.786Z,51.40
2022-11-10T06:17:09.135Z,49.58
2022-11-10T06:19:57.037Z,47.00
2022-11-10T06:22:42.604Z,53.60
2022-11-10T06:25:29.834Z,47.97
2022-11-10T06:28:15.042Z,49.78
2022-11-10T06:31:00.565Z,52.35
2022-11-10T06:33:45.798Z,56.47
2022-11-10T06:36:31.147Z,50.03
2022-11-10T06:39:16.154Z,46.00
2022-11-10T06:42:01.431Z,51.33
2022-11-10T06:44:46.834Z,49.67
2022-11-10T06:47:32.467Z,52.88
2022-11-10T06:50:18.260Z,54.53
2022-11-10T06:53:03.813Z,58.47
2022-11-10T06:55:48.963Z,56.17
2022-11-10T06:58:34.333Z,57.90
2022-11-10T07:01:22.608Z,56.05
2022-11-10T07:04:23.881Z,53.25
2022-11-10T07:07:09.762Z,56.40
2022-11-10T07:09:54.947Z,52.35
2022-11-10T07:12:40.257Z,54.30
2022-11-10T07:15:25.342Z,53.50
2022-11-10T07:18:10.670Z,56.35
2022-11-10T07:20:56.061Z,53.95
2022-11-10T07:23:42.130Z,48.08
2022-11-10T07:26:27.268Z,52.40
2022-11-10T07:29:12.562Z,50.95
2022-11-10T07:31:57.725Z,49.63
2022-11-10T07:34:43.141Z,41.53
2022-11-10T07:37:29.202Z,43.25
2022-11-10T07:40:14.635Z,41.65
2022-11-10T07:43:00.339Z,40.40
2022-11-10T07:45:47.104Z,34.05
2022-11-10T07:48:33.766Z,36.45
2022-11-10T07:51:19.217Z,37.90
2022-11-10T07:54:04.655Z,37.70
2022-11-10T07:56:50.127Z,34.30
2022-11-10T07:59:35.495Z,35.17
2022-11-10T08:02:20.677Z,34.45
2022-11-10T08:05:06.579Z,33.58
2022-11-10T08:07:53.457Z,30.48
2022-11-10T08:10:40.074Z,29.25
2022-11-10T08:13:25.554Z,31.65
2022-11-10T08:16:10.959Z,31.88
2022-11-10T08:18:56.290Z,30.00
2022-11-10T08:21:41.649Z,29.95
2022-11-10T08:24:26.708Z,28.85
2022-11-10T08:27:11.961Z,30.15
2022-11-10T08:29:57.006Z,25.90
2022-11-10T08:32:42.398Z,28.23
2022-11-10T08:35:29.976Z,24.83
2022-11-10T08:38:21.277Z,27.15
2022-11-10T08:41:06.707Z,20.95
2022-11-10T08:43:53.262Z,20.40
2022-11-10T08:46:38.236Z,24.00
2022-11-10T08:49:23.485Z,23.98
2022-11-10T08:52:10.596Z,25.40
2022-11-10T08:54:55.638Z,24.60
2022-11-10T08:57:40.986Z,25.23
2022-11-10T09:00:26.518Z,22.13
2022-11-10T09:03:21.280Z,23.98
2022-11-10T09:06:06.706Z,24.85
2022-11-10T09:08:54.200Z,22.02
2022-11-10T09:11:39.509Z,32.60
2022-11-10T09:14:24.814Z,23.02
2022-11-10T09:17:10.138Z,22.13
2022-11-10T09:20:02.428Z,21.20
2022-11-10T09:22:48.350Z,21.83
2022-11-10T09:25:38.087Z,22.58
2022-11-10T09:28:27.489Z,23.17
2022-11-10T09:31:13.216Z,24.92
2022-11-10T09:33:59.318Z,22.35
2022-11-10T09:36:44.662Z,21.17
2022-11-10T09:39:30.015Z,20.35
2022-11-10T09:42:39.692Z,25.33
2022-11-10T09:45:36.516Z,20.95
2022-11-10T09:48:31.550Z,23.48
2022-11-10T09:51:33.814Z,23.17
2022-11-10T09:54:41.975Z,21.70
2022-11-10T09:57:28.141Z,21.00
2022-11-10T10:00:18.077Z,19.17
2022-11-10T10:03:05.245Z,22.33
2022-11-10T10:06:11.044Z,24.63
2022-11-10T10:09:15.557Z,22.63
2022-11-10T10:12:35.475Z,20.35
2022-11-10T10:15:58.119Z,23.88
2022-11-10T10:19:01.474Z,22.33
2022-11-10T10:22:17.930Z,21.70
2022-11-10T10:25:13.116Z,23.20
2022-11-10T10:28:13.183Z,22.83
2022-11-10T10:31:19.503Z,24.60
2022-11-10T10:34:05.234Z,23.55
2022-11-10T10:36:50.454Z,22.00
2022-11-10T10:39:44.049Z,26.70
2022-11-10T10:45:43.117Z,27.30
2022-11-10T10:48:30.607Z,27.33
2022-11-10T10:51:29.912Z,25.02
2022-11-10T10:54:30.330Z,23.65
2022-11-10T10:57:25.788Z,23.08
2022-11-10T11:00:24.253Z,21.67
2022-11-10T11:03:36.461Z,23.58
2022-11-10T11:06:27.854Z,18.50
2022-11-10T11:09:17.278Z,22.23
2022-11-10T11:12:08.877Z,24.27
2022-11-10T11:15:21.778Z,23.20
2022-11-10T11:18:18.447Z,23.10
2022-11-10T11:21:15.633Z,23.52
2022-11-10T11:24:13.381Z,22.35
2022-11-10T11:27:46.711Z,19.42
2022-11-10T11:31:10.375Z,22.48
2022-11-10T11:34:31.633Z,21.17
2022-11-10T11:37:40.380Z,21.30
2022-11-10T11:40:44.504Z,19.75
2022-11-10T11:44:01.894Z,22.23
2022-11-10T11:47:07.974Z,20.92
2022-11-10T11:50:19.863Z,20.63
2022-11-10T11:53:19.459Z,16.10
2022-11-10T11:56:22.834Z,18.13
2022-11-10T11:59:28.753Z,17.33
2022-11-10T12:02:14.122Z,18.38
2022-11-10T12:05:24.155Z,17.83
2022-11-10T12:08:12.245Z,17.35
2022-11-10T12:11:09.525Z,17.17
2022-11-10T12:14:10.550Z,19.35
2022-11-10T12:17:08.849Z,15.95
2022-11-10T12:20:06.352Z,17.30
2022-11-10T12:22:59.871Z,18.73
2022-11-10T12:25:45.002Z,14.98
2022-11-10T12:28:41.525Z,19.83
2022-11-10T12:31:29.935Z,18.90
2022-11-10T12:34:36.979Z,18.67
2022-11-10T12:37:35.948Z,16.88
2022-11-10T12:40:22.016Z,17.75
2022-11-10T12:43:14.150Z,20.10
2022-11-10T12:46:03.490Z,17.45
2022-11-10T12:49:23.936Z,18.33
2022-11-10T12:52:19.495Z,19.02
2022-11-10T12:55:05.194Z,18.48
2022-11-10T12:57:50.545Z,20.27
2022-11-10T13:00:56.754Z,18.35
2022-11-10T13:03:55.665Z,20.33
2022-11-10T13:06:51.757Z,19.17
2022-11-10T13:09:41.285Z,18.83
2022-11-10T13:12:26.653Z,18.38
2022-11-10T13:15:50.748Z,16.33
2022-11-10T13:18:35.723Z,18.88
2022-11-10T13:21:53.048Z,18.48
2022-11-10T13:24:43.173Z,14.90
2022-11-10T13:27:41.667Z,18.92
2022-11-10T13:30:48.771Z,17.70
2022-11-10T13:33:37.637Z,15.82
2022-11-10T13:36:44.334Z,15.45
2022-11-10T13:39:34.180Z,12.73
2022-11-10T13:42:24.086Z,12.35
2022-11-10T13:45:28.046Z,12.77
2022-11-10T13:48:35.346Z,12.20
2022-11-10T13:51:35.999Z,20.20
2022-11-10T13:54:29.658Z,12.93
2022-11-10T13:57:37.450Z,12.98
2022-11-10T14:00:28.205Z,15.70
2022-11-10T14:03:46.046Z,17.85
2022-11-10T14:06:48.537Z,18.95
2022-11-10T14:09:42.987Z,16.75
2022-11-10T14:12:48.338Z,13.23
2022-11-10T14:15:48.309Z,13.23
2022-11-10T14:18:41.633Z,12.77
2022-11-10T14:21:45.514Z,17.20
2022-11-10T14:27:34.811Z,13.70
2022-11-10T14:30:21.463Z,17.38
2022-11-10T14:33:10.909Z,18.15
2022-11-10T14:35:58.454Z,17.33
2022-11-10T14:38:45.113Z,18.05
2022-11-10T14:41:30.335Z,20.65
2022-11-10T14:44:25.605Z,20.90
2022-11-10T14:47:33.684Z,20.40
2022-11-10T14:50:22.971Z,16.50
2022-11-10T14:53:16.540Z,16.10
2022-11-10T14:56:03.801Z,17.77
2022-11-10T14:58:50.493Z,18.33
2022-11-10T15:01:48.103Z,15.50
2022-11-10T15:04:34.261Z,19.38
2022-11-10T15:07:21.788Z,15.60
2022-11-10T15:10:16.211Z,17.45
2022-11-10T15:13:11.629Z,17.05
2022-11-10T15:16:21.376Z,14.05
2022-11-10T15:19:32.459Z,15.98
2022-11-10T15:22:20.043Z,17.75
2022-11-10T15:25:16.532Z,22.13
2022-11-10T15:28:14.031Z,15.82
2022-11-10T15:31:11.671Z,16.80
2022-11-10T15:34:02.462Z,16.20
2022-11-10T15:36:47.435Z,15.68
2022-11-10T15:39:32.962Z,16.23
2022-11-10T15:42:21.249Z,18.23
2022-11-10T15:45:06.744Z,13.77
2022-11-10T15:47:52.404Z,17.33
2022-11-10T15:50:38.037Z,16.20
2022-11-10T15:53:28.445Z,15.38
2022-11-10T15:56:22.294Z,16.67
2022-11-10T15:59:09.814Z,14.93
2022-11-10T16:01:55.289Z,16.15
2022-11-10T16:04:44.121Z,17.23
2022-11-10T16:07:29.875Z,16.65
2022-11-10T16:10:15.611Z,17.20
2022-11-10T16:13:00.987Z,17.45
2022-11-10T16:15:46.420Z,16.17
2022-11-10T16:18:31.674Z,17.08
2022-11-10T16:21:22.666Z,15.95
2022-11-10T16:24:08.134Z,18.05
2022-11-10T16:26:53.708Z,19.02
2022-11-10T16:29:39.264Z,17.63
2022-11-10T16:32:24.675Z,16.27
2022-11-10T16:35:14.158Z,15.35
2022-11-10T16:37:59.258Z,16.25
2022-11-10T16:40:45.190Z,16.42
2022-11-10T16:43:31.708Z,16.20
2022-11-10T16:46:19.761Z,17.73
2022-11-10T16:49:06.884Z,16.42
2022-11-10T16:51:52.583Z,18.42
2022-11-10T16:54:37.994Z,17.67
2022-11-10T16:57:23.291Z,18.98
2022-11-10T17:00:09.226Z,17.80
2022-11-10T17:03:11.173Z,21.55
2022-11-10T17:05:56.164Z,20.15
2022-11-10T17:08:42.342Z,17.38
2022-11-10T17:11:28.064Z,21.17
2022-11-10T17:14:14.758Z,17.77
2022-11-10T17:17:00.765Z,18.33
2022-11-10T17:19:47.496Z,17.70
2022-11-10T17:22:36.407Z,18.02
2022-11-10T17:25:28.782Z,17.10
2022-11-10T17:28:15.791Z,18.48
2022-11-10T17:31:01.067Z,22.98
2022-11-10T17:33:46.375Z,21.08
2022-11-10T17:36:34.353Z,18.20
2022-11-10T17:39:20.021Z,21.10
2022-11-10T17:42:05.247Z,28.30
2022-11-10T17:44:50.276Z,19.17
2022-11-10T17:47:35.614Z,19.45
2022-11-10T17:50:22.946Z,19.15
2022-11-10T17:53:28.591Z,20.17
2022-11-10T17:56:14.360Z,38.70
2022-11-10T17:58:59.527Z,21.52
2022-11-10T18:01:44.829Z,19.75
2022-11-10T18:04:30.689Z,23.58
2022-11-10T18:07:16.425Z,18.83
2022-11-10T18:10:01.971Z,19.75
2022-11-10T18:12:47.355Z,24.90
2022-11-10T18:15:32.691Z,19.10
2022-11-10T18:18:18.655Z,25.90
2022-11-10T18:21:04.568Z,18.58
2022-11-10T18:23:49.965Z,18.85
2022-11-10T18:26:35.335Z,18.98
2022-11-10T18:29:20.536Z,17.30
2022-11-10T18:32:06.177Z,25.77
2022-11-10T18:34:51.425Z,17.85
2022-11-10T18:37:39.235Z,19.67
2022-11-10T18:40:25.362Z,18.70
2022-11-10T18:43:10.808Z,20.33
2022-11-10T18:45:56.150Z,17.00
2022-11-10T18:48:41.359Z,20.92
2022-11-10T18:51:26.601Z,23.77
2022-11-10T18:54:11.793Z,17.95
2022-11-10T18:56:56.992Z,19.33
2022-11-10T18:59:42.671Z,20.00
2022-11-10T19:02:27.811Z,20.08
2022-11-10T19:05:13.174Z,20.30
2022-11-10T19:07:58.841Z,22.80
2022-11-10T19:10:44.027Z,20.30
2022-11-10T19:13:29.365Z,19.17
2022-11-10T19:16:17.513Z,23.35
2022-11-10T19:19:02.954Z,19.60
2022-11-10T19:21:48.489Z,21.42
2022-11-10T19:24:42.477Z,20.25
2022-11-10T19:27:39.268Z,22.45
2022-11-10T19:30:26.728Z,23.45
2022-11-10T19:33:12.101Z,24.63
2022-11-10T19:36:01.413Z,19.42
2022-11-10T19:38:47.440Z,19.58
2022-11-10T19:41:32.818Z,23.45
2022-11-10T19:44:18.201Z,20.00
2022-11-10T19:47:03.562Z,20.83
2022-11-10T19:49:48.960Z,22.40
2022-11-10T19:52:34.131Z,20.63
2022-11-10T19:55:19.350Z,22.95
2022-11-10T19:58:04.645Z,25.73
2022-11-10T20:00:50.113Z,18.63
2022-11-10T20:03:35.934Z,17.40
2022-11-10T20:06:23.207Z,20.70
2022-11-10T20:09:08.374Z,24.85
2022-11-10T20:11:53.785Z,21.27
2022-11-10T20:14:38.936Z,22.67
2022-11-10T20:17:24.161Z,22.67
2022-11-10T20:20:10.176Z,22.30
2022-11-10T20:22:55.298Z,17.20
2022-11-10T20:25:40.899Z,19.30
2022-11-10T20:28:25.869Z,22.15
2022-11-10T20:31:16.316Z,26.83
2022-11-10T20:34:01.261Z,20.52
2022-11-10T20:36:46.805Z,21.30
2022-11-10T20:39:32.401Z,18.77
2022-11-10T20:45:26.533Z,24.50
2022-11-10T20:48:11.581Z,19.27
2022-11-10T20:50:57.334Z,20.48
2022-11-10T20:53:42.741Z,21.92
2022-11-10T20:56:29.972Z,19.10
2022-11-10T20:59:15.426Z,22.83
2022-11-10T21:02:00.799Z,23.17
2022-11-10T21:04:47.359Z,18.02
2022-11-10T21:07:32.766Z,21.75
2022-11-10T21:10:18.014Z,15.65
2022-11-10T21:13:03.376Z,21.40
2022-11-10T21:15:58.234Z,23.95
2022-11-10T21:18:43.493Z,22.10
2022-11-10T21:21:34.637Z,20.50
2022-11-10T21:24:20.390Z,17.50
2022-11-10T21:27:05.513Z,16.98
2022-11-10T21:29:50.906Z,21.88
2022-11-10T21:32:36.272Z,22.98
2022-11-10T21:35:21.786Z,20.77
2022-11-10T21:38:06.926Z,20.75
2022-11-10T21:40:52.242Z,21.15
2022-11-10T21:43:38.829Z,20.25
2022-11-10T21:46:24.307Z,20.80
2022-11-10T21:49:09.568Z,21.90
2022-11-10T21:51:55.146Z,20.17
2022-11-10T21:54:40.202Z,18.85
2022-11-10T21:57:25.777Z,20.42
2022-11-10T22:00:12.260Z,16.42
2022-11-10T22:03:02.171Z,18.00
2022-11-10T22:05:47.327Z,22.58
2022-11-10T22:08:34.118Z,20.65
2022-11-10T22:11:39.814Z,22.35
2022-11-10T22:14:43.641Z,20.55
2022-11-10T22:17:47.973Z,23.15
2022-11-10T22:20:33.470Z,19.27
2022-11-10T22:23:18.962Z,19.13
2022-11-10T22:26:03.977Z,23.05
2022-11-10T22:28:49.418Z,20.98
2022-11-10T22:31:34.544Z,20.15
2022-11-10T22:34:20.641Z,21.48
2022-11-10T22:37:05.771Z,22.80
2022-11-10T22:40:09.424Z,21.42
2022-11-10T22:43:12.839Z,25.60
2022-11-10T22:45:58.295Z,21.13
2022-11-10T22:48:43.629Z,18.67
2022-11-10T22:51:30.749Z,18.30
2022-11-10T22:54:18.670Z,21.70
2022-11-10T22:57:03.966Z,19.25
2022-11-10T22:59:49.391Z,20.33
2022-11-10T23:02:54.778Z,22.58
2022-11-10T23:05:40.470Z,25.20
2022-11-10T23:08:25.841Z,19.60
2022-11-10T23:11:19.415Z,24.02
2022-11-10T23:14:04.785Z,26.55
2022-11-10T23:16:50.014Z,22.05
2022-11-10T23:19:35.529Z,22.38
2022-11-10T23:22:20.966Z,21.48
2022-11-10T23:25:06.674Z,25.67
2022-11-10T23:27:51.801Z,23.13
2022-11-10T23:30:37.263Z,22.02
2022-11-10T23:33:22.806Z,22.05
2022-11-10T23:36:10.229Z,19.60
2022-11-10T23:38:55.782Z,20.02
2022-11-10T23:41:40.714Z,23.45
2022-11-10T23:44:26.025Z,21.23
2022-11-10T23:50:20.697Z,22.92
2022-11-10T23:53:05.972Z,22.65
2022-11-10T23:56:02.987Z,23.52
2022-11-10T23:58:48.037Z,24.63
